Altamont, New York
Current Conditions -  °F | °C
As of 7:51 AM on Friday 19 Dec 2014 (Local Time) from KALB Reporting Station
Overcast Overcast  
Wind Chill: 20°   Ceiling: 4000
Heat Index: 30°   Visibility: 10mi
Dew Point: 20°   Wind: 14mph
Humidity: 66%   Direction: 290°WNW
Pressure: 30.03"   Gusts: NA
Location:  42.7°N, 74.03°W
Report Text: KALB 191251Z 29012KT 10SM FEW025 OVC040 M01/M07 A3003 RMK AO2 SLP173 FEW V SCT T10111067
Loading
Personal Weather Stations






























Interactive Weather Map New forecast layout! Learn more

10-Day Weather Forecast

Advertisements
Track Severe Weather on mobile